Data for 02/19/2014

Time Sea-Level Adjusted Pressure Absolute Pressure Temperature Relative Humidity Dew Point   
(mb) (inHg) (mb) (inHg) (C) (F) (%) (C) (F)
00:05 1006 29.71 835 24.66 3.3 37.9 39 -9.4 15.1
00:10 1006 29.71 835 24.66 3.6 38.6 40 -8.6 16.5
00:15 1006 29.71 835 24.66 3.8 38.8 39 -8.8 16.1
00:20 1006 29.71 835 24.66 4.1 39.3 39 -8.8 16.1
00:25 1006 29.71 835 24.66 4.4 39.9 39 -8.5 16.8
00:30 1006 29.71 835 24.66 4.2 39.5 39 -8.4 16.8
00:35 1006 29.71 835 24.66 3.9 39 42 -8 17.6
00:40 1005 29.68 835 24.66 3.7 38.6 40 -8.7 16.4
00:45 1005 29.68 834 24.63 4.1 39.3 40 -8.3 17
00:50 1005 29.68 834 24.63 4.1 39.3 40 -8.4 16.9
00:55 1005 29.68 834 24.63 3.9 39 42 -7.8 18
01:00 1005 29.68 834 24.63 3.7 38.6 41 -8.3 17
01:05 1005 29.68 834 24.63 3.9 39 41 -8.1 17.5
01:10 1005 29.68 834 24.63 4 39.1 41 -8 17.6
01:15 1004 29.65 834 24.63 4 39.1 41 -8.1 17.4
01:20 1004 29.65 834 24.63 4.3 39.7 41 -7.9 17.8
01:25 1004 29.65 834 24.63 4 39.2 42 -7.7 18.1
01:30 1004 29.65 834 24.63 3.8 38.8 42 -8.1 17.5
01:35 1004 29.65 834 24.63 4.1 39.3 43 -7.5 18.5
01:40 1004 29.65 833 24.6 3.8 38.9 43 -7.6 18.4
01:45 1004 29.65 833 24.6 3.8 38.9 43 -7.5 18.5
01:50 1004 29.65 833 24.6 3.8 38.9 43 -7.8 18
01:55 1004 29.65 833 24.6 4 39.2 44 -7.2 19
02:00 1004 29.65 833 24.6 3.9 39 43 -7.6 18.3
02:05 1004 29.65 833 24.6 4.1 39.4 42 -7.6 18.3
02:10 1004 29.65 833 24.6 4.1 39.4 41 -7.9 17.8
02:15 1004 29.65 833 24.6 4.3 39.8 42 -7.5 18.4
02:20 1004 29.65 833 24.6 4.3 39.7 42 -7.6 18.3
02:25 1003 29.62 833 24.6 4.2 39.6 41 -8 17.7
02:30 1003 29.62 833 24.6 4.4 40 39 -8.4 16.9
02:35 1003 29.62 833 24.6 4.7 40.5 39 -8 17.6
02:40 1003 29.62 832 24.57 5.1 41.1 38 -8.2 17.2
02:45 1003 29.62 832 24.57 5.3 41.5 37 -8.2 17.3
02:50 1003 29.62 832 24.57 5.1 41.3 40 -7.4 18.6
02:55 1003 29.62 832 24.57 4.9 40.9 41 -7.2 19.1
03:00 1003 29.62 832 24.57 4.8 40.6 40 -7.7 18.1
03:05 1003 29.62 832 24.57 5.1 41.3 40 -7.3 18.9
03:10 1003 29.62 832 24.57 5 41.1 39 -8 17.7
03:15 1002 29.59 832 24.57 5.2 41.3 39 -7.8 18
03:20 1002 29.59 831 24.54 5.3 41.5 39 -7.5 18.6
03:25 1002 29.59 831 24.54 4.9 40.8 42 -7 19.3
03:30 1002 29.59 831 24.54 4.9 40.8 40 -7.5 18.6
03:35 1002 29.59 831 24.54 5.2 41.3 40 -7.3 18.9
03:40 1002 29.59 831 24.54 5.1 41.3 41 -6.9 19.6
03:45 1002 29.59 831 24.54 5 41.1 42 -6.7 20
03:50 1002 29.59 831 24.54 5 41.1 43 -6.6 20.1
03:55 1001 29.56 831 24.54 5 41 42 -6.7 19.9
04:00 1001 29.56 830 24.51 5 41 43 -6.5 20.3
04:05 1001 29.56 830 24.51 5 40.9 42 -6.8 19.8
04:10 1001 29.56 830 24.51 4.9 40.9 42 -6.9 19.5
04:15 1001 29.56 830 24.51 5 41.1 44 -6.2 20.8
04:20 1001 29.56 830 24.51 5 40.9 42 -6.8 19.7
04:25 1001 29.56 830 24.51 5 41 42 -6.9 19.6
04:30 1001 29.56 830 24.51 5.1 41.1 43 -6.6 20.2
04:35 1001 29.56 830 24.51 5.1 41.2 42 -6.9 19.6
04:40 1001 29.56 830 24.51 4.9 40.9 44 -6.2 20.9
04:45 1001 29.56 830 24.51 4.7 40.5 46 -5.9 21.3
04:50 1000 29.53 830 24.51 4.7 40.4 41 -7.3 18.8
04:55 1001 29.56 830 24.51 4.9 40.8 42 -6.8 19.7
05:00 1001 29.56 830 24.51 4.9 40.8 44 -6.4 20.5
05:05 1001 29.56 830 24.51 4.9 40.8 41 -7.2 19.1
05:10 1001 29.56 831 24.54 4.9 40.9 43 -6.5 20.3
05:15 1001 29.56 831 24.54 4.7 40.5 44 -6.4 20.5
05:20 1002 29.59 831 24.54 4.6 40.2 44 -6.5 20.3
05:25 1002 29.59 831 24.54 4.6 40.3 44 -6.7 19.9
05:30 1002 29.59 832 24.57 3.3 38 71 -1.5 29.3
05:35 1003 29.62 832 24.57 1.1 33.9 79 -2.2 28
05:40 1003 29.62 832 24.57 0.1 32.2 85 -2.2 28.1
05:45 1003 29.62 832 24.57 -0.4 31.3 89 -2 28.4
05:50 1003 29.62 832 24.57 -0.7 30.8 91 -2 28.4
05:55 1003 29.62 832 24.57 -0.8 30.5 92 -2 28.4
06:00 1003 29.62 833 24.6 -0.9 30.3 93 -2 28.4
06:05 1003 29.62 833 24.6 -1.1 30.1 94 -2 28.4
06:10 1004 29.65 833 24.6 -1.2 29.9 94 -2 28.3
06:15 1004 29.65 833 24.6 -1.2 29.8 93 -2.2 28.1
06:20 1004 29.65 833 24.6 -1.2 29.8 92 -2.3 27.8
06:25 1004 29.65 833 24.6 -1.2 29.9 90 -2.6 27.3
06:30 1004 29.65 833 24.6 -1 30.2 86 -3 26.6
06:35 1004 29.65 833 24.6 -0.7 30.7 82 -3.4 25.9
06:40 1004 29.65 833 24.6 -0.5 31.1 82 -3.2 26.2
06:45 1004 29.65 833 24.6 -0.6 31 83 -3.1 26.4
06:50 1004 29.65 834 24.63 -0.6 30.9 82 -3.3 26
06:55 1004 29.65 834 24.63 -0.6 30.9 80 -3.6 25.6
07:00 1005 29.68 834 24.63 -0.5 31.2 76 -4.1 24.6
07:05 1005 29.68 834 24.63 -0.4 31.3 76 -4 24.8
07:10 1005 29.68 834 24.63 -0.4 31.4 78 -3.8 25.2
07:15 1005 29.68 834 24.63 -0.4 31.3 67 -5.8 21.6
07:20 1005 29.68 834 24.63 -0.2 31.6 68 -5.4 22.4
07:25 1005 29.68 834 24.63 -0.4 31.2 75 -4.3 24.2
07:30 1005 29.68 834 24.63 -0.7 30.8 79 -3.9 25
07:35 1005 29.68 834 24.63 -0.9 30.4 82 -3.6 25.5
07:40 1005 29.68 834 24.63 -1 30.3 82 -3.6 25.5
07:45 1005 29.68 834 24.63 -1 30.2 81 -3.8 25.1
07:50 1005 29.68 834 24.63 -0.9 30.4 80 -3.9 25
07:55 1005 29.68 835 24.66 -0.8 30.5 80 -3.9 24.9
08:00 1005 29.68 834 24.63 -0.8 30.6 79 -4.1 24.7
08:05 1005 29.68 834 24.63 -0.7 30.7 77 -4.3 24.3
08:10 1005 29.68 835 24.66 -0.6 31 73 -4.8 23.4
08:15 1005 29.68 835 24.66 -0.3 31.4 67 -5.7 21.8
08:20 1005 29.68 835 24.66 -0.2 31.7 63 -6.4 20.5
08:25 1006 29.71 835 24.66 -0 31.9 62 -6.5 20.3
08:30 1006 29.71 835 24.66 -0 32 50 -9.1 15.6
08:35 1006 29.71 835 24.66 0.2 32.3 43 -10.9 12.4
08:40 1006 29.71 835 24.66 0.4 32.6 47 -9.7 14.5
08:45 1006 29.71 835 24.66 0.1 32.2 62 -6.4 20.5
08:50 1006 29.71 835 24.66 -0.2 31.6 62 -6.7 19.9
08:55 1006 29.71 835 24.66 -0.2 31.6 64 -6.3 20.7
09:00 1006 29.71 835 24.66 -0.2 31.6 65 -6.1 21
09:05 1006 29.71 835 24.66 -0.3 31.4 59 -7.4 18.8
09:10 1006 29.71 835 24.66 -0.3 31.4 55 -8.4 16.9
09:15 1006 29.71 835 24.66 -0.2 31.7 52 -8.9 16
09:20 1006 29.71 836 24.69 -0.1 31.8 53 -8.7 16.4
09:25 1006 29.71 836 24.69 -0.2 31.7 53 -8.6 16.5
09:30 1006 29.71 836 24.69 -0.3 31.5 54 -8.6 16.5
09:35 1006 29.71 835 24.66 -0.3 31.4 48 -10.1 13.8
09:40 1006 29.71 835 24.66 -0.3 31.5 42 -11.8 10.8
09:45 1006 29.71 836 24.69 -0.2 31.6 40 -12.4 9.7
09:50 1006 29.71 835 24.66 -0.2 31.7 40 -12.4 9.8
09:55 1006 29.71 835 24.66 -0.2 31.6 39 -12.5 9.6
10:00 1006 29.71 835 24.66 -0.3 31.4 39 -12.8 9
10:05 1006 29.71 835 24.66 -0.4 31.3 38 -13.1 8.4
10:10 1006 29.71 835 24.66 -0.4 31.3 31 -15.7 3.8
10:15 1006 29.71 835 24.66 -0.3 31.5 29 -16.2 2.8
10:20 1006 29.71 836 24.69 -0.4 31.3 30 -16 3.3
10:25 1006 29.71 836 24.69 -0.5 31 30 -16 3.2
10:30 1006 29.71 836 24.69 -0.7 30.8 31 -16 3.3
10:35 1007 29.74 836 24.69 -0.7 30.7 31 -15.7 3.7
10:40 1007 29.74 836 24.69 -0.7 30.8 32 -15.3 4.5
10:45 1007 29.74 836 24.69 -0.7 30.8 32 -15.3 4.4
10:50 1007 29.74 836 24.69 -0.8 30.5 34 -14.7 5.5
10:55 1007 29.74 836 24.69 -1 30.2 35 -14.5 5.8
11:00 1007 29.74 836 24.69 -1.1 30 35 -14.6 5.8
11:05 1007 29.74 836 24.69 -1.2 29.9 37 -14.2 6.5
11:10 1007 29.74 836 24.69 -0.5 31.1 35 -14.1 6.7
11:15 1007 29.74 836 24.69 0.2 32.4 34 -13.9 6.9
11:20 1007 29.74 836 24.69 0.7 33.3 33 -13.7 7.4
11:25 1007 29.74 836 24.69 1.1 34 33 -13.6 7.5
11:30 1007 29.74 837 24.72 1.1 33.9 32 -14.1 6.7
11:35 1007 29.74 837 24.72 0.8 33.4 33 -13.9 7
11:40 1007 29.74 837 24.72 0.9 33.7 32 -13.9 7.1
11:45 1007 29.74 837 24.72 1.1 33.9 32 -13.8 7.2
11:50 1007 29.74 837 24.72 1.1 33.9 29 -15.2 4.6
11:55 1007 29.74 837 24.72 1 33.7 27 -16.1 3
12:00 1008 29.77 837 24.72 1 33.7 26 -16.6 2.2
12:05 1008 29.77 837 24.72 0.9 33.6 28 -15.8 3.6
12:10 1008 29.77 837 24.72 0.9 33.5 28 -15.6 3.9
12:15 1008 29.77 837 24.72 0.9 33.6 25 -16.9 1.7
12:20 1008 29.77 837 24.72 0.9 33.7 26 -16.5 2.3
12:25 1008 29.77 837 24.72 0.8 33.5 27 -16 3.2
12:30 1008 29.77 837 24.72 1 33.8 29 -15.2 4.6
12:35 1008 29.77 837 24.72 1.2 34.1 29 -15.1 4.9
12:40 1008 29.77 837 24.72 1 33.8 29 -15.1 4.9
12:45 1008 29.77 837 24.72 0.4 32.7 30 -15.1 4.8
12:50 1008 29.77 837 24.72 0.3 32.5 30 -15.4 4.3
12:55 1008 29.77 837 24.72 0.5 32.9 32 -14.5 5.8
13:00 1008 29.77 837 24.72 0.1 32.1 32 -14.7 5.5
13:05 1008 29.77 837 24.72 0.3 32.5 30 -15.3 4.4
13:10 1008 29.77 837 24.72 0.6 33.1 29 -15.6 4
13:15 1008 29.77 837 24.72 0.8 33.4 28 -15.8 3.6
13:20 1008 29.77 837 24.72 0.8 33.4 27 -16.4 2.4
13:25 1008 29.77 837 24.72 0.8 33.5 28 -16 3.3
13:30 1008 29.77 837 24.72 1 33.8 26 -16.6 2
13:35 1008 29.77 837 24.72 1.1 34 26 -16.2 2.8
13:40 1008 29.77 837 24.72 1.2 34.2 27 -15.7 3.8
13:45 1008 29.77 837 24.72 1.5 34.7 28 -15.2 4.6
13:50 1008 29.77 837 24.72 1.7 35 26 -16.1 2.9
13:55 1008 29.77 837 24.72 1.9 35.5 27 -15.3 4.4
14:00 1008 29.77 837 24.72 1.7 35.1 25 -16.2 2.9
14:05 1007 29.74 837 24.72 1.7 35.1 25 -16.5 2.3
14:10 1007 29.74 837 24.72 1.8 35.3 26 -15.9 3.3
14:15 1007 29.74 837 24.72 2.3 36.1 23 -16.9 1.6
14:20 1007 29.74 837 24.72 2.6 36.7 24 -16 3.1
14:25 1007 29.74 837 24.72 2.4 36.4 24 -16.1 3
14:30 1007 29.74 837 24.72 2.6 36.7 23 -16.7 1.9
14:35 1007 29.74 836 24.69 2.1 35.8 23 -16.9 1.5
14:40 1007 29.74 836 24.69 1.5 34.7 25 -16.7 1.9
14:45 1007 29.74 836 24.69 1.3 34.3 25 -16.6 2.1
14:50 1007 29.74 837 24.72 0.9 33.7 25 -17 1.4
14:55 1007 29.74 837 24.72 0.8 33.4 23 -17.9 -0.3
15:00 1008 29.77 837 24.72 0.3 32.5 27 -16.5 2.3
15:05 1008 29.77 837 24.72 -0.1 31.9 28 -16.7 2
15:10 1008 29.77 837 24.72 -0 32 32 -14.8 5.3
15:15 1008 29.77 837 24.72 -0.3 31.5 32 -14.9 5.2
15:20 1008 29.77 837 24.72 -0.4 31.3 33 -14.9 5.1
15:25 1008 29.77 837 24.72 -0.7 30.8 38 -13.2 8.2
15:30 1008 29.77 837 24.72 -1 30.2 37 -14 6.8
15:35 1008 29.77 837 24.72 -1.1 30 42 -12.4 9.6
15:40 1008 29.77 837 24.72 -1.2 29.8 44 -12 10.5
15:45 1008 29.77 837 24.72 -1.3 29.7 44 -12 10.4
15:50 1008 29.77 837 24.72 -1.3 29.6 45 -11.7 10.9
15:55 1008 29.77 837 24.72 -1.3 29.7 45 -11.8 10.7
16:00 1008 29.77 837 24.72 -1.2 29.9 43 -12.2 10
16:05 1008 29.77 837 24.72 -1.2 29.9 41 -12.8 8.9
16:10 1008 29.77 837 24.72 -1.3 29.6 48 -11 12.2
16:15 1008 29.77 837 24.72 -1.6 29.1 51 -10.4 13.3
16:20 1008 29.77 837 24.72 -1.7 28.9 53 -10 13.9
16:25 1008 29.77 838 24.75 -1.8 28.8 52 -10.3 13.5
16:30 1008 29.77 838 24.75 -1.6 29.1 52 -10.3 13.5
16:35 1009 29.8 838 24.75 -1.5 29.3 52 -10.1 13.7
16:40 1009 29.8 838 24.75 -1.3 29.7 50 -10.5 13
16:45 1009 29.8 838 24.75 -1.2 29.8 44 -12 10.5
16:50 1009 29.8 838 24.75 -1.3 29.6 46 -11.7 11
16:55 1009 29.8 838 24.75 -1.4 29.4 44 -12.2 10.1
17:00 1009 29.8 838 24.75 -1.3 29.6 45 -11.8 10.8
17:05 1009 29.8 838 24.75 -1.3 29.6 47 -11.4 11.5
17:10 1009 29.8 838 24.75 -1.4 29.4 50 -10.7 12.8
17:15 1009 29.8 838 24.75 -1.5 29.3 50 -10.7 12.8
17:20 1009 29.8 838 24.75 -1.6 29.1 50 -10.7 12.8
17:25 1009 29.8 838 24.75 -1.7 28.9 52 -10.4 13.3
17:30 1009 29.8 838 24.75 -1.9 28.7 54 -10.1 13.9
17:35 1009 29.8 838 24.75 -2 28.4 53 -10.4 13.3
17:40 1009 29.8 838 24.75 -2 28.5 54 -10 14
17:50 1009 29.8 838 24.75 -1.9 28.6 52 -10.6 12.9
17:55 1009 29.8 838 24.75 -1.9 28.6 50 -11.1 12.1
18:00 1009 29.8 838 24.75 -1.9 28.6 46 -11.9 10.5
17:40 1009 29.8 838 24.75 -2 28.5 54 -10 14
17:45 1009 29.8 838 24.75 -1.9 28.5 53 -10.2 13.6
18:05 1009 29.8 838 24.75 -1.9 28.5 43 -13 8.7
18:10 1009 29.8 838 24.75 -2 28.4 43 -12.9 8.9
18:15 1009 29.8 838 24.75 -2 28.3 44 -12.8 8.9
18:20 1009 29.8 838 24.75 -2.2 28.1 45 -12.6 9.3
18:25 1009 29.8 838 24.75 -2.4 27.8 46 -12.6 9.4
18:30 1009 29.8 839 24.78 -2.4 27.6 47 -12.3 9.8
18:35 1009 29.8 839 24.78 -2.5 27.5 46 -12.6 9.3
18:40 1009 29.8 839 24.78 -2.5 27.5 47 -12.4 9.8
18:45 1009 29.8 839 24.78 -2.6 27.3 47 -12.3 9.8
18:50 1010 29.83 839 24.78 -2.7 27.2 49 -12 10.5
18:55 1010 29.83 839 24.78 -2.7 27.1 50 -11.8 10.8
19:00 1010 29.83 839 24.78 -2.7 27.1 49 -11.9 10.5
19:05 1010 29.83 839 24.78 -2.8 27 51 -11.6 11.1
19:10 1010 29.83 839 24.78 -2.8 26.9 50 -12 10.5
19:15 1010 29.83 839 24.78 -2.9 26.9 48 -12.3 9.8
19:20 1010 29.83 839 24.78 -2.8 26.9 47 -12.7 9.1
19:25 1010 29.83 839 24.78 -2.8 26.9 49 -12.1 10.2
19:30 1010 29.83 839 24.78 -2.8 27 48 -12.4 9.6
19:35 1010 29.83 839 24.78 -2.8 27 50 -11.9 10.6
19:40 1010 29.83 839 24.78 -2.9 26.8 49 -12.1 10.3
19:45 1010 29.83 840 24.81 -2.9 26.7 51 -11.8 10.7
19:50 1010 29.83 840 24.81 -3 26.5 53 -11.4 11.4
19:55 1011 29.85 840 24.81 -3.4 25.9 54 -11.4 11.5
20:00 1011 29.85 840 24.81 -3.4 25.8 55 -11.3 11.7
20:05 1011 29.85 840 24.81 -3.5 25.7 53 -11.9 10.7
20:10 1011 29.85 840 24.81 -3.4 25.9 56 -11 12.2
20:15 1011 29.85 840 24.81 -3.8 25.3 57 -11 12.2
20:20 1011 29.85 840 24.81 -3.8 25.1 60 -10.5 13.2
20:25 1011 29.85 840 24.81 -4.3 24.2 64 -10.1 13.9
20:30 1011 29.85 840 24.81 -4.6 23.8 65 -10.1 13.8
20:35 1011 29.85 840 24.81 -4.6 23.7 61 -11 12.2
20:40 1011 29.85 840 24.81 -4.1 24.7 60 -10.7 12.7
20:45 1011 29.85 840 24.81 -4.2 24.5 62 -10.5 13.1
20:50 1011 29.85 840 24.81 -4.4 24.1 62 -10.5 13
20:55 1011 29.85 840 24.81 -4.5 23.8 63 -10.5 13
21:00 1011 29.85 840 24.81 -4.4 24 62 -10.6 13
21:05 1011 29.85 840 24.81 -4.4 24.1 63 -10.5 13.1
21:10 1011 29.85 840 24.81 -4.3 24.3 62 -10.6 12.9
21:15 1011 29.85 841 24.83 -4.2 24.4 62 -10.5 13.1
21:20 1011 29.85 841 24.83 -4.2 24.5 62 -10.5 13.1
21:25 1011 29.85 841 24.83 -4.2 24.4 62 -10.4 13.3
21:30 1012 29.88 841 24.83 -4.1 24.7 63 -10.1 13.8
21:35 1012 29.88 841 24.83 -4 24.8 64 -9.8 14.4
21:40 1012 29.88 841 24.83 -3.9 24.9 64 -9.7 14.6
21:45 1012 29.88 841 24.83 -3.8 25.2 65 -9.4 15.1
21:50 1012 29.88 841 24.83 -3.8 25.2 66 -9.2 15.4
21:55 1012 29.88 841 24.83 -3.8 25.1 66 -9.2 15.4
22:00 1012 29.88 841 24.83 -3.9 25.1 66 -9.3 15.3
22:05 1012 29.88 841 24.83 -3.9 24.9 67 -9.2 15.4
22:10 1012 29.88 841 24.83 -3.9 24.9 67 -9.2 15.4
22:15 1012 29.88 842 24.86 -4 24.8 69 -8.9 16
22:20 1012 29.88 842 24.86 -4 24.8 62 -10.3 13.4
22:25 1012 29.88 842 24.86 -3.9 24.9 61 -10.4 13.3
22:30 1012 29.88 842 24.86 -3.9 24.9 62 -10.2 13.6
22:35 1013 29.91 842 24.86 -4 24.8 63 -10.1 13.8
22:40 1013 29.91 842 24.86 -4.1 24.7 63 -10 13.9
22:45 1013 29.91 842 24.86 -4.1 24.5 65 -9.8 14.3
22:50 1013 29.91 842 24.86 -4.2 24.4 65 -9.8 14.4
22:55 1013 29.91 842 24.86 -4.3 24.2 66 -9.9 14.2
23:00 1013 29.91 842 24.86 -4.4 24.1 65 -10 14
23:05 1013 29.91 842 24.86 -4.4 24.2 64 -10.1 13.7
23:10 1013 29.91 842 24.86 -4.4 24.2 63 -10.3 13.4
23:15 1013 29.91 842 24.86 -4.3 24.3 62 -10.6 12.9
23:20 1013 29.91 842 24.86 -4.2 24.4 61 -10.7 12.8
23:25 1013 29.91 842 24.86 -4.2 24.4 61 -10.6 12.9
23:30 1013 29.91 842 24.86 -4.2 24.5 59 -11 12.2
23:35 1013 29.91 842 24.86 -4.1 24.6 58 -11.2 11.8
23:40 1013 29.91 842 24.86 -4.1 24.7 58 -11.1 12.1
23:45 1013 29.91 842 24.86 -4.1 24.6 59 -11.1 12.1
23:50 1013 29.91 842 24.86 -4.1 24.7 59 -11 12.1
23:55 1013 29.91 842 24.86 -4.1 24.7 58 -11.2 11.9
24:00 1013 29.91 842 24.86 -4.1 24.7 58 -11.1 12